createdAt,value
2018-06-05T00:00:54.175Z,13.83
2018-06-05T00:03:22.371Z,11.57
2018-06-05T00:05:50.530Z,11.13
2018-06-05T00:08:18.695Z,9.53
2018-06-05T00:10:46.884Z,9.63
2018-06-05T00:13:15.076Z,7.87
2018-06-05T00:15:43.380Z,9.97
2018-06-05T00:18:11.632Z,11.70
2018-06-05T00:20:39.812Z,8.97
2018-06-05T00:23:07.978Z,9.53
2018-06-05T00:25:36.165Z,9.63
2018-06-05T00:28:04.490Z,11.50
2018-06-05T00:30:32.667Z,12.77
2018-06-05T00:33:00.834Z,12.37
2018-06-05T00:35:29.001Z,10.77
2018-06-05T00:37:57.452Z,10.73
2018-06-05T00:40:25.777Z,9.77
2018-06-05T00:42:53.964Z,8.93
2018-06-05T00:45:22.136Z,10.77
2018-06-05T00:47:50.304Z,13.70
2018-06-05T00:50:18.624Z,12.47
2018-06-05T00:52:46.920Z,10.47
2018-06-05T00:55:15.246Z,13.67
2018-06-05T00:57:43.588Z,12.00
2018-06-05T01:00:11.848Z,12.33
2018-06-05T01:02:40.070Z,15.10
2018-06-05T01:05:08.330Z,15.87
2018-06-05T01:07:36.508Z,14.07
2018-06-05T01:10:05.040Z,16.10
2018-06-05T01:12:33.400Z,13.33
2018-06-05T01:15:01.592Z,10.83
2018-06-05T01:17:29.779Z,13.17
2018-06-05T01:19:57.992Z,16.47
2018-06-05T01:22:26.313Z,17.53
2018-06-05T01:24:54.509Z,18.03
2018-06-05T01:27:22.683Z,12.90
2018-06-05T01:29:50.848Z,22.53
2018-06-05T01:32:19.032Z,19.93
2018-06-05T01:34:47.201Z,15.77
2018-06-05T01:37:15.427Z,18.00
2018-06-05T01:39:43.680Z,15.40
2018-06-05T01:42:11.912Z,13.00
2018-06-05T01:44:40.125Z,12.83
2018-06-05T01:47:08.308Z,19.23
2018-06-05T01:49:40.615Z,12.93
2018-06-05T01:52:09.357Z,14.37
2018-06-05T01:54:37.541Z,12.10
2018-06-05T01:57:05.791Z,16.30
2018-06-05T01:59:33.947Z,12.07
2018-06-05T02:02:02.493Z,15.93
2018-06-05T02:04:30.661Z,16.53
2018-06-05T02:06:58.827Z,20.77
2018-06-05T02:09:27.102Z,21.80
2018-06-05T02:11:55.272Z,15.33
2018-06-05T02:14:23.448Z,16.77
2018-06-05T02:16:51.623Z,30.23
2018-06-05T02:19:19.796Z,22.17
2018-06-05T02:21:51.037Z,21.87
2018-06-05T02:24:19.855Z,21.23
2018-06-05T02:26:48.069Z,20.57
2018-06-05T02:29:16.230Z,18.97
2018-06-05T02:31:45.797Z,13.73
2018-06-05T02:34:13.970Z,15.10
2018-06-05T02:36:42.241Z,16.43
2018-06-05T02:39:10.536Z,18.30
2018-06-05T02:41:38.721Z,19.83
2018-06-05T02:44:06.892Z,19.20
2018-06-05T02:46:35.056Z,17.43
2018-06-05T02:49:03.228Z,28.33
2018-06-05T02:51:31.404Z,19.53
2018-06-05T02:53:59.586Z,13.43
2018-06-05T02:56:27.892Z,19.47
2018-06-05T02:58:56.273Z,18.00
2018-06-05T03:01:24.427Z,20.80
2018-06-05T03:03:52.796Z,27.03
2018-06-05T03:06:22.880Z,27.20
2018-06-05T03:08:51.055Z,24.93
2018-06-05T03:11:22.116Z,25.57
2018-06-05T03:13:50.456Z,28.50
2018-06-05T03:16:18.634Z,27.80
2018-06-05T03:18:46.877Z,25.43
2018-06-05T03:21:15.132Z,21.17
2018-06-05T03:23:43.336Z,21.63
2018-06-05T03:26:11.791Z,23.97
2018-06-05T03:28:40.471Z,29.10
2018-06-05T03:31:08.623Z,23.47
2018-06-05T03:33:36.839Z,23.13
2018-06-05T03:36:05.122Z,25.37
2018-06-05T03:38:33.517Z,36.30
2018-06-05T03:41:01.705Z,28.13
2018-06-05T03:43:29.976Z,26.40
2018-06-05T03:45:58.128Z,33.67
2018-06-05T03:48:26.416Z,29.37
2018-06-05T03:50:55.902Z,28.13
2018-06-05T03:53:24.080Z,29.53
2018-06-05T03:55:52.281Z,29.60
2018-06-05T03:58:20.468Z,28.47
2018-06-05T04:00:48.652Z,20.20
2018-06-05T04:03:16.828Z,22.30
2018-06-05T04:05:45.107Z,18.60
2018-06-05T04:08:13.351Z,23.63
2018-06-05T04:10:41.533Z,24.47
2018-06-05T04:13:10.973Z,26.27
2018-06-05T04:15:39.962Z,26.03
2018-06-05T04:18:08.460Z,26.13
2018-06-05T04:20:36.628Z,29.60
2018-06-05T04:23:04.807Z,27.60
2018-06-05T04:25:32.984Z,28.97
2018-06-05T04:28:01.334Z,28.47
2018-06-05T04:30:29.671Z,27.67
2018-06-05T04:32:57.944Z,32.00
2018-06-05T04:35:26.119Z,23.13
2018-06-05T04:37:54.275Z,25.00
2018-06-05T04:40:22.456Z,24.23
2018-06-05T04:42:50.647Z,27.17
2018-06-05T04:45:18.989Z,33.70
2018-06-05T04:47:47.237Z,26.33
2018-06-05T04:50:15.617Z,24.10
2018-06-05T04:52:43.828Z,35.30
2018-06-05T04:55:12.454Z,31.33
2018-06-05T04:57:41.019Z,25.67
2018-06-05T05:00:09.288Z,25.33
2018-06-05T05:02:37.546Z,34.03
2018-06-05T05:05:06.127Z,27.53
2018-06-05T05:07:34.409Z,27.73
2018-06-05T05:10:02.696Z,26.07
2018-06-05T05:12:31.039Z,26.10
2018-06-05T05:14:59.313Z,26.87
2018-06-05T05:17:27.517Z,22.07
2018-06-05T05:19:55.805Z,29.53
2018-06-05T05:22:24.083Z,30.37
2018-06-05T05:24:54.441Z,29.60
2018-06-05T05:27:22.672Z,28.33
2018-06-05T05:29:50.965Z,35.57
2018-06-05T05:32:19.256Z,31.37
2018-06-05T05:34:47.450Z,31.83
2018-06-05T05:37:15.617Z,31.27
2018-06-05T05:39:43.811Z,36.43
2018-06-05T05:42:11.983Z,30.47
2018-06-05T05:44:40.185Z,37.93
2018-06-05T05:47:08.552Z,24.03
2018-06-05T05:49:36.752Z,26.17
2018-06-05T05:52:05.025Z,21.10
2018-06-05T05:54:33.292Z,25.60
2018-06-05T05:57:01.456Z,28.73
2018-06-05T05:59:29.671Z,27.77
2018-06-05T06:01:57.847Z,19.27
2018-06-05T06:04:26.032Z,17.90
2018-06-05T06:06:54.207Z,18.20
2018-06-05T06:09:22.384Z,20.50
2018-06-05T06:11:50.657Z,26.00
2018-06-05T06:14:18.853Z,29.30
2018-06-05T06:16:47.208Z,23.80
2018-06-05T06:19:15.488Z,23.00
2018-06-05T06:21:43.984Z,24.30
2018-06-05T06:24:12.324Z,25.07
2018-06-05T06:26:40.566Z,21.43
2018-06-05T06:29:08.928Z,23.70
2018-06-05T06:31:37.189Z,19.10
2018-06-05T06:34:05.418Z,17.63
2018-06-05T06:36:34.320Z,19.03
2018-06-05T06:39:02.516Z,22.67
2018-06-05T06:41:30.780Z,18.47
2018-06-05T06:43:59.240Z,17.53
2018-06-05T06:46:27.428Z,19.97
2018-06-05T06:48:55.747Z,17.63
2018-06-05T06:51:23.930Z,14.77
2018-06-05T06:53:52.452Z,19.40
2018-06-05T06:56:20.689Z,24.63
2018-06-05T06:58:48.860Z,22.73
2018-06-05T07:01:17.041Z,16.53
2018-06-05T07:03:45.266Z,17.23
2018-06-05T07:06:13.649Z,21.17
2018-06-05T07:08:41.817Z,18.93
2018-06-05T07:11:10.002Z,20.27
2018-06-05T07:13:38.168Z,22.20
2018-06-05T07:16:06.405Z,20.77
2018-06-05T07:18:34.622Z,24.80
2018-06-05T07:21:03.347Z,21.53
2018-06-05T07:23:31.701Z,25.50
2018-06-05T07:26:00.006Z,25.90
2018-06-05T07:28:28.191Z,30.93
2018-06-05T07:30:56.396Z,21.23
2018-06-05T07:33:24.680Z,25.23
2018-06-05T07:35:52.870Z,21.27
2018-06-05T07:38:21.031Z,20.33
2018-06-05T07:40:49.220Z,24.20
2018-06-05T07:43:17.484Z,21.80
2018-06-05T07:45:45.802Z,20.43
2018-06-05T07:48:14.029Z,24.03
2018-06-05T07:50:42.295Z,20.50
2018-06-05T07:53:10.472Z,26.67
2018-06-05T07:55:38.655Z,22.40
2018-06-05T07:58:06.870Z,17.67
2018-06-05T08:00:35.056Z,25.20
2018-06-05T08:03:03.241Z,22.23
2018-06-05T08:05:31.414Z,18.50
2018-06-05T08:07:59.688Z,20.60
2018-06-05T08:10:28.112Z,17.40
2018-06-05T08:12:56.505Z,22.03
2018-06-05T08:15:24.706Z,20.07
2018-06-05T08:17:52.996Z,26.93
2018-06-05T08:20:21.253Z,26.27
2018-06-05T08:22:53.961Z,22.30
2018-06-05T08:25:22.314Z,24.67
2018-06-05T08:27:50.517Z,25.97
2018-06-05T08:30:18.712Z,27.27
2018-06-05T08:32:47.704Z,21.33
2018-06-05T08:35:15.920Z,18.87
2018-06-05T08:37:44.182Z,16.87
2018-06-05T08:40:12.376Z,18.63
2018-06-05T08:42:41.125Z,18.67
2018-06-05T08:45:09.333Z,27.87
2018-06-05T08:47:37.601Z,27.37
2018-06-05T08:50:05.800Z,30.67
2018-06-05T08:52:33.988Z,27.43
2018-06-05T08:55:02.288Z,24.93
2018-06-05T08:57:30.477Z,22.93
2018-06-05T08:59:58.896Z,24.60
2018-06-05T09:02:27.121Z,28.00
2018-06-05T09:04:55.302Z,21.10
2018-06-05T09:07:23.543Z,19.00
2018-06-05T09:09:51.810Z,21.17
2018-06-05T09:12:20.105Z,27.47
2018-06-05T09:14:48.270Z,30.87
2018-06-05T09:17:16.542Z,28.17
2018-06-05T09:19:44.734Z,35.03
2018-06-05T09:22:13.214Z,32.27
2018-06-05T09:24:41.576Z,29.27
2018-06-05T09:27:09.813Z,28.00
2018-06-05T09:29:38.023Z,25.80
2018-06-05T09:32:06.313Z,24.73
2018-06-05T09:34:34.712Z,19.33
2018-06-05T09:37:03.029Z,17.90
2018-06-05T09:39:31.358Z,19.33
2018-06-05T09:41:59.685Z,27.37
2018-06-05T09:44:27.941Z,24.60
2018-06-05T09:46:56.617Z,28.03
2018-06-05T09:49:24.959Z,30.00
2018-06-05T09:51:53.284Z,30.40
2018-06-05T09:54:21.590Z,29.07
2018-06-05T09:56:50.080Z,27.03
2018-06-05T09:59:18.588Z,25.03
2018-06-05T10:01:46.856Z,24.00
2018-06-05T10:04:15.317Z,26.60
2018-06-05T10:06:43.715Z,22.27
2018-06-05T10:09:11.912Z,21.07
2018-06-05T10:11:40.077Z,19.97
2018-06-05T10:14:08.347Z,24.53
2018-06-05T10:16:36.505Z,32.83
2018-06-05T10:19:04.785Z,27.30
2018-06-05T10:21:32.975Z,28.60
2018-06-05T10:24:01.243Z,23.67
2018-06-05T10:26:29.482Z,25.13
2018-06-05T10:28:57.792Z,30.37
2018-06-05T10:31:25.978Z,26.83
2018-06-05T10:33:54.164Z,32.20
2018-06-05T10:36:22.436Z,29.77
2018-06-05T10:38:50.620Z,27.60
2018-06-05T10:41:18.812Z,23.63
2018-06-05T10:43:47.015Z,30.57
2018-06-05T10:46:15.250Z,23.70
2018-06-05T10:48:43.444Z,22.67
2018-06-05T10:51:11.612Z,26.17
2018-06-05T10:53:40.085Z,23.53
2018-06-05T10:56:08.266Z,29.43
2018-06-05T10:58:36.606Z,22.50
2018-06-05T11:01:04.831Z,31.30
2018-06-05T11:03:33.093Z,30.40
2018-06-05T11:06:01.305Z,32.63
2018-06-05T11:08:29.781Z,32.20
2018-06-05T11:10:57.990Z,27.93
2018-06-05T11:13:26.244Z,25.97
2018-06-05T11:15:54.415Z,26.50
2018-06-05T11:18:22.674Z,27.33
2018-06-05T11:20:51.153Z,23.83
2018-06-05T11:23:19.409Z,21.70
2018-06-05T11:25:47.656Z,26.77
2018-06-05T11:28:15.887Z,25.67
2018-06-05T11:30:44.165Z,28.87
2018-06-05T11:33:12.336Z,27.07
2018-06-05T11:35:41.260Z,26.67
2018-06-05T11:38:09.527Z,32.30
2018-06-05T11:40:37.917Z,26.60
2018-06-05T11:43:06.450Z,32.13
2018-06-05T11:45:34.741Z,32.23
2018-06-05T11:48:02.996Z,29.90
2018-06-05T11:50:31.272Z,33.07
2018-06-05T11:52:59.492Z,31.33
2018-06-05T11:55:27.779Z,33.00
2018-06-05T11:57:55.966Z,28.67
2018-06-05T12:00:24.376Z,34.37
2018-06-05T12:02:52.637Z,34.63
2018-06-05T12:05:21.176Z,32.97
2018-06-05T12:07:49.369Z,38.23
2018-06-05T12:10:17.668Z,35.37
2018-06-05T12:12:45.935Z,30.70
2018-06-05T12:15:14.210Z,32.07
2018-06-05T12:17:42.495Z,33.20
2018-06-05T12:20:10.787Z,32.10
2018-06-05T12:22:38.946Z,29.73
2018-06-05T12:25:07.237Z,26.27
2018-06-05T12:27:35.512Z,29.73
2018-06-05T12:30:03.830Z,26.23
2018-06-05T12:32:32.040Z,27.67
2018-06-05T12:35:00.435Z,30.73
2018-06-05T12:37:28.701Z,29.87
2018-06-05T12:39:56.988Z,34.97
2018-06-05T12:42:25.309Z,32.70
2018-06-05T12:44:53.580Z,37.97
2018-06-05T12:47:21.901Z,36.90
2018-06-05T12:49:50.301Z,32.97
2018-06-05T12:52:18.553Z,32.13
2018-06-05T12:54:46.895Z,32.00
2018-06-05T12:57:15.219Z,29.67
2018-06-05T12:59:44.340Z,34.60
2018-06-05T13:02:12.532Z,41.40
2018-06-05T13:04:40.755Z,35.53
2018-06-05T13:07:09.052Z,31.73
2018-06-05T13:09:37.324Z,34.10
2018-06-05T13:12:05.703Z,37.37
2018-06-05T13:14:33.833Z,33.17
2018-06-05T13:17:02.316Z,38.57
2018-06-05T13:19:31.331Z,30.40
2018-06-05T13:21:59.584Z,27.53
2018-06-05T13:24:27.805Z,34.57
2018-06-05T13:27:05.273Z,28.83
2018-06-05T13:29:34.033Z,32.00
2018-06-05T13:32:02.884Z,28.93
2018-06-05T13:34:31.473Z,33.77
2018-06-05T13:36:59.862Z,36.37
2018-06-05T13:39:28.042Z,34.07
2018-06-05T13:41:56.229Z,30.87
2018-06-05T13:44:24.940Z,30.53
2018-06-05T13:46:53.204Z,24.33
2018-06-05T13:49:21.470Z,32.47
2018-06-05T13:51:49.703Z,37.80
2018-06-05T13:54:17.876Z,34.17
2018-06-05T13:56:46.065Z,36.13
2018-06-05T13:59:14.369Z,33.53
2018-06-05T14:01:42.750Z,29.10
2018-06-05T14:04:11.025Z,36.00
2018-06-05T14:06:39.315Z,34.30
2018-06-05T14:09:08.308Z,32.67
2018-06-05T14:11:36.424Z,36.60
2018-06-05T14:14:04.936Z,32.47
2018-06-05T14:16:33.181Z,32.53
2018-06-05T14:19:01.362Z,30.20
2018-06-05T14:21:29.545Z,34.37
2018-06-05T14:23:57.765Z,34.37
2018-06-05T14:26:25.939Z,32.67
2018-06-05T14:28:54.235Z,26.87
2018-06-05T14:31:22.455Z,31.57
2018-06-05T14:33:51.045Z,30.47
2018-06-05T14:36:19.236Z,28.53
2018-06-05T14:38:47.420Z,32.70
2018-06-05T14:41:16.101Z,29.93
2018-06-05T14:43:44.297Z,35.97
2018-06-05T14:46:12.589Z,36.77
2018-06-05T14:48:41.814Z,30.53
2018-06-05T14:51:10.005Z,26.83
2018-06-05T14:53:38.819Z,31.70
2018-06-05T14:56:07.008Z,35.73
2018-06-05T14:58:35.326Z,36.03
2018-06-05T15:01:03.581Z,34.13
2018-06-05T15:03:31.835Z,37.30
2018-06-05T15:06:00.106Z,36.83
2018-06-05T15:08:28.404Z,34.70
2018-06-05T15:10:56.665Z,35.00
2018-06-05T15:13:25.045Z,35.70
2018-06-05T15:15:53.349Z,36.47
2018-06-05T15:18:21.605Z,38.23
2018-06-05T15:20:49.873Z,37.40
2018-06-05T15:23:18.187Z,37.33
2018-06-05T15:25:47.179Z,40.03
2018-06-05T15:28:15.420Z,38.67
2018-06-05T15:30:43.684Z,38.23
2018-06-05T15:33:11.993Z,40.87
2018-06-05T15:35:40.341Z,38.87
2018-06-05T15:38:09.430Z,39.93
2018-06-05T15:40:37.633Z,39.60
2018-06-05T15:43:05.884Z,40.80
2018-06-05T15:45:34.174Z,38.13
2018-06-05T15:48:02.589Z,32.53
2018-06-05T15:50:30.831Z,34.77
2018-06-05T15:52:59.112Z,35.23
2018-06-05T15:55:27.509Z,34.70
2018-06-05T15:57:55.888Z,33.50
2018-06-05T16:00:24.200Z,30.27
2018-06-05T16:02:52.670Z,39.43
2018-06-05T16:05:20.908Z,37.60
2018-06-05T16:07:49.193Z,39.00
2018-06-05T16:10:17.494Z,37.37
2018-06-05T16:12:45.882Z,35.77
2018-06-05T16:15:14.674Z,33.20
2018-06-05T16:17:42.891Z,31.13
2018-06-05T16:20:11.084Z,38.93
2018-06-05T16:22:39.330Z,38.83
2018-06-05T16:25:07.536Z,39.37
2018-06-05T16:27:35.980Z,37.23
2018-06-05T16:30:04.734Z,40.67
2018-06-05T16:32:32.920Z,39.90
2018-06-05T16:35:01.141Z,40.17
2018-06-05T16:37:29.318Z,39.53
2018-06-05T16:39:57.518Z,41.93
2018-06-05T16:42:25.704Z,37.13
2018-06-05T16:44:53.892Z,36.47
2018-06-05T16:47:22.128Z,35.83
2018-06-05T16:49:50.479Z,37.20
2018-06-05T16:52:18.665Z,37.30
2018-06-05T16:54:46.995Z,40.70
2018-06-05T16:57:15.188Z,37.33
2018-06-05T16:59:43.503Z,32.00
2018-06-05T17:02:11.705Z,38.47
2018-06-05T17:04:39.944Z,33.20
2018-06-05T17:07:08.194Z,29.83
2018-06-05T17:09:36.402Z,37.80
2018-06-05T17:12:04.657Z,40.37
2018-06-05T17:14:32.860Z,38.20
2018-06-05T17:17:01.033Z,38.70
2018-06-05T17:19:30.879Z,34.47
2018-06-05T17:21:59.186Z,43.60
2018-06-05T17:24:27.387Z,38.03
2018-06-05T17:26:55.576Z,38.07
2018-06-05T17:29:23.765Z,35.27
2018-06-05T17:31:51.953Z,29.90
2018-06-05T17:34:20.182Z,31.67
2018-06-05T17:36:48.368Z,29.43
2018-06-05T17:39:16.768Z,26.63
2018-06-05T17:41:46.128Z,36.33
2018-06-05T17:44:14.394Z,25.30
2018-06-05T17:46:42.574Z,33.20
2018-06-05T17:49:10.879Z,28.90
2018-06-05T17:51:39.168Z,32.73
2018-06-05T17:54:07.540Z,34.20
2018-06-05T17:56:36.163Z,26.63
2018-06-05T17:59:04.382Z,30.53
2018-06-05T18:01:32.569Z,29.87
2018-06-05T18:04:01.051Z,26.57
2018-06-05T18:06:29.268Z,25.70
2018-06-05T18:08:57.464Z,22.33
2018-06-05T18:11:25.634Z,30.97
2018-06-05T18:13:53.842Z,28.80
2018-06-05T18:16:22.043Z,29.43
2018-06-05T18:18:50.216Z,32.93
2018-06-05T18:21:18.406Z,32.37
2018-06-05T18:23:46.688Z,30.87
2018-06-05T18:26:14.902Z,32.20
2018-06-05T18:28:43.231Z,24.63
2018-06-05T18:31:11.457Z,22.67
2018-06-05T18:33:39.712Z,18.87
2018-06-05T18:36:07.942Z,24.40
2018-06-05T18:38:36.425Z,23.77
2018-06-05T18:41:04.703Z,25.47
2018-06-05T18:43:32.906Z,22.87
2018-06-05T18:46:01.248Z,16.50
2018-06-05T18:48:29.444Z,17.13
2018-06-05T18:50:57.664Z,15.30
2018-06-05T18:53:25.874Z,12.97
2018-06-05T18:55:54.156Z,15.00
2018-06-05T18:58:22.341Z,16.30
2018-06-05T19:00:50.538Z,19.93
2018-06-05T19:03:18.804Z,17.67
2018-06-05T19:05:46.997Z,14.40
2018-06-05T19:08:15.174Z,14.50
2018-06-05T19:10:43.401Z,15.13
2018-06-05T19:13:11.620Z,15.20
2018-06-05T19:15:39.840Z,14.00
2018-06-05T19:18:08.026Z,13.10
2018-06-05T19:20:36.308Z,13.97
2018-06-05T19:23:04.573Z,11.43
2018-06-05T19:25:33.638Z,11.93
2018-06-05T19:28:04.857Z,11.47
2018-06-05T19:30:36.781Z,11.13
2018-06-05T19:33:13.119Z,10.00
2018-06-05T19:35:41.380Z,11.07
2018-06-05T19:38:09.557Z,14.00
2018-06-05T19:40:37.752Z,11.37
2018-06-05T19:43:05.963Z,14.70
2018-06-05T19:45:34.188Z,16.57
2018-06-05T19:48:02.408Z,15.80
2018-06-05T19:50:30.669Z,15.30
2018-06-05T19:52:59.009Z,13.93
2018-06-05T19:55:27.230Z,13.47
2018-06-05T19:58:00.643Z,12.03
2018-06-05T20:00:28.996Z,11.57
2018-06-05T20:02:57.185Z,11.77
2018-06-05T20:05:25.561Z,13.63
2018-06-05T20:07:53.705Z,12.83
2018-06-05T20:10:21.905Z,11.23
2018-06-05T20:12:50.096Z,9.77
2018-06-05T20:15:18.283Z,8.47
2018-06-05T20:17:46.528Z,8.27
2018-06-05T20:20:14.698Z,9.63
2018-06-05T20:22:42.906Z,8.97
2018-06-05T20:25:11.102Z,8.90
2018-06-05T20:27:39.337Z,9.30
2018-06-05T20:30:07.528Z,8.80
2018-06-05T20:32:35.789Z,8.60
2018-06-05T20:35:04.005Z,7.13
2018-06-05T20:37:32.201Z,6.97
2018-06-05T20:40:00.448Z,7.03
2018-06-05T20:42:28.745Z,8.33
2018-06-05T20:44:57.187Z,7.73
2018-06-05T20:47:25.433Z,6.47
2018-06-05T20:49:53.626Z,6.10
2018-06-05T20:52:21.868Z,6.57
2018-06-05T20:54:50.352Z,6.23
2018-06-05T20:57:18.497Z,5.00
2018-06-05T20:59:46.883Z,6.03
2018-06-05T21:02:15.159Z,5.40
2018-06-05T21:04:43.357Z,5.83
2018-06-05T21:07:11.656Z,6.60
2018-06-05T21:09:39.909Z,6.40
2018-06-05T21:12:08.130Z,6.10
2018-06-05T21:14:36.378Z,6.33
2018-06-05T21:17:04.657Z,6.67
2018-06-05T21:19:32.831Z,5.43
2018-06-05T21:22:01.213Z,6.53
2018-06-05T21:24:29.462Z,7.53
2018-06-05T21:26:57.756Z,5.90
2018-06-05T21:29:25.960Z,6.50
2018-06-05T21:31:54.239Z,5.27
2018-06-05T21:34:22.533Z,5.83
2018-06-05T21:36:50.709Z,5.13
2018-06-05T21:39:19.013Z,4.97
2018-06-05T21:41:47.212Z,5.67
2018-06-05T21:44:15.392Z,5.97
2018-06-05T21:46:43.601Z,5.20
2018-06-05T21:49:11.821Z,5.90
2018-06-05T21:54:05.115Z,5.90
2018-06-05T21:56:33.304Z,4.60
2018-06-05T21:59:01.501Z,6.03
2018-06-05T22:01:29.740Z,6.90
2018-06-05T22:03:57.947Z,5.60
2018-06-05T22:06:26.193Z,5.67
2018-06-05T22:08:54.478Z,7.03
2018-06-05T22:11:22.730Z,7.00
2018-06-05T22:13:51.035Z,5.20
2018-06-05T22:16:19.305Z,6.90
2018-06-05T22:18:47.781Z,8.80
2018-06-05T22:21:15.975Z,6.83
2018-06-05T22:23:44.227Z,5.53
2018-06-05T22:26:12.405Z,6.20
2018-06-05T22:28:40.779Z,6.13
2018-06-05T22:31:09.031Z,5.00
2018-06-05T22:33:37.430Z,5.73
2018-06-05T22:36:05.729Z,7.33
2018-06-05T22:38:33.927Z,6.57
2018-06-05T22:41:02.107Z,6.87
2018-06-05T22:43:31.021Z,5.50
2018-06-05T22:45:59.450Z,5.50
2018-06-05T22:48:27.670Z,5.53
2018-06-05T22:50:55.840Z,5.97
2018-06-05T22:53:24.014Z,4.87
2018-06-05T22:55:52.242Z,5.63
2018-06-05T22:58:20.428Z,5.30
2018-06-05T23:00:48.868Z,5.00
2018-06-05T23:03:17.098Z,4.43
2018-06-05T23:05:45.262Z,4.47
2018-06-05T23:08:13.297Z,4.40
2018-06-05T23:10:41.481Z,4.37
2018-06-05T23:13:09.838Z,4.57
2018-06-05T23:15:38.142Z,5.37
2018-06-05T23:18:06.310Z,5.07
2018-06-05T23:20:34.575Z,4.53
2018-06-05T23:23:02.828Z,5.40
2018-06-05T23:25:31.026Z,6.20
2018-06-05T23:27:59.372Z,5.47
2018-06-05T23:30:27.550Z,5.77
2018-06-05T23:32:56.249Z,5.37
2018-06-05T23:35:24.486Z,5.90
2018-06-05T23:37:52.880Z,6.03
2018-06-05T23:40:21.089Z,8.13
2018-06-05T23:42:49.293Z,9.00
2018-06-05T23:45:17.716Z,6.77
2018-06-05T23:47:45.961Z,7.23
2018-06-05T23:50:14.270Z,5.43
2018-06-05T23:52:42.449Z,5.60
2018-06-05T23:55:10.757Z,6.07
2018-06-05T23:57:38.917Z,5.03
